EDT,Max TemperatureF,Mean TemperatureF,Min TemperatureF,Max Dew PointF,MeanDew PointF,Min DewpointF,Max Humidity, Mean Humidity, Min Humidity, Max Sea Level PressureIn, Mean Sea Level PressureIn, Min Sea Level PressureIn, Max VisibilityMiles, Mean VisibilityMiles, Min VisibilityMiles, Max Wind SpeedMPH, Mean Wind SpeedMPH, Max Gust SpeedMPH,PrecipitationIn, CloudCover, Events, WindDirDegrees
2011-10-1,63,55,43,44,37,32,89,54,35,30.03,29.94,29.84,10,10,10,10,5,21,0.00,1,,330
2011-10-2,64,52,39,40,37,32,97,60,31,30.09,30.03,29.99,10,10,10,7,3,,0.00,0,,280
2011-10-3,70,53,37,49,40,33,97,70,30,30.19,30.11,30.06,10,10,10,7,1,17,0.00,1,,354
2011-10-4,75,60,44,54,48,42,97,73,38,30.25,30.20,30.17,10,10,10,8,2,,0.00,0,,36
2011-10-5,77,62,48,56,52,47,97,75,42,30.29,30.23,30.18,10,9,4,6,1,,0.00,0,,50
2011-10-6,75,64,53,54,52,49,97,72,41,30.35,30.30,30.24,10,10,5,9,3,,0.01,0,,36
2011-10-7,75,62,50,53,51,46,97,75,40,30.43,30.39,30.34,10,9,6,10,2,,0.00,0,,39
2011-10-8,73,60,48,52,48,46,90,66,38,30.50,30.43,30.38,10,10,9,10,4,16,0.01,0,,29
2011-10-9,77,65,55,57,53,48,81,67,50,30.41,30.34,30.27,10,10,10,14,8,21,0.00,2,,42
2011-10-10,70,64,60,57,53,47,78,67,58,30.27,30.18,30.08,10,10,10,13,9,21,0.00,5,Rain,35
2011-10-11,64,60,57,61,58,56,100,94,78,30.08,29.99,29.92,10,5,2,16,11,25,0.54,8,Rain,34
2011-10-12,73,65,57,66,61,57,100,92,73,29.92,29.84,29.77,10,8,2,8,4,,0.13,8,Rain,10
2011-10-13,73,68,61,65,63,57,100,92,61,29.79,29.69,29.58,10,6,2,8,2,17,0.02,7,Rain,188
2011-10-14,75,62,52,57,50,37,100,77,27,29.87,29.69,29.60,10,7,1,9,1,17,0.01,2,Rain,232
2011-10-15,73,60,46,48,42,33,93,59,27,30.06,29.96,29.88,10,10,10,10,2,17,0.00,0,,232
2011-10-16,79,60,42,50,43,38,93,61,26,30.14,30.06,29.98,10,10,10,10,1,17,0.00,0,,200
2011-10-17,82,66,50,57,51,47,93,63,33,29.98,29.92,29.85,10,10,10,9,4,17,0.00,0,,215
2011-10-18,80,66,52,62,58,51,100,81,42,29.86,29.76,29.66,10,7,2,13,3,,0.68,4,Rain,94
2011-10-19,68,57,46,65,58,40,100,93,74,29.64,29.45,29.29,10,6,2,13,8,21,0.29,7,Rain,105
2011-10-20,60,50,42,41,39,37,92,70,47,29.99,29.78,29.57,10,10,10,12,6,21,0.00,1,,221
2011-10-21,63,49,36,45,39,35,100,76,41,30.11,30.06,29.99,10,9,6,5,1,,0.00,0,,230
2011-10-22,64,52,41,45,41,37,97,72,38,30.18,30.12,30.08,10,10,4,10,4,,0.00,0,,355
2011-10-23,68,52,39,48,44,38,97,76,44,30.17,30.11,30.06,10,8,5,6,1,,0.00,0,,55
2011-10-24,73,59,45,51,46,44,97,76,35,30.14,30.10,30.05,10,8,4,7,0,,0.00,1,,199
2011-10-25,75,59,45,49,45,38,93,64,29,30.27,30.20,30.14,10,10,8,8,2,,0.00,0,,36
2011-10-26,75,60,45,53,47,44,97,72,35,30.16,30.04,29.94,10,9,3,10,2,18,0.00,0,,219
2011-10-27,78,66,53,55,51,47,80,61,42,29.90,29.85,29.78,10,10,10,10,4,20,0.00,0,,221
2011-10-28,64,53,42,54,43,37,96,74,62,30.09,30.04,29.91,10,9,3,17,9,22,0.13,8,Rain,38
2011-10-29,57,46,34,41,37,27,96,76,35,30.17,30.01,29.95,10,9,4,12,6,23,0.30,5,Rain,3
2011-10-30,61,45,30,37,31,27,96,63,28,30.32,30.27,30.18,10,9,6,6,1,,0.00,0,,16
2011-10-31,61,46,34,38,35,32,92,67,38,30.31,30.26,30.18,10,10,7,6,1,,0.00,1,,34